Time;durP1;ratioP1;P1;durP2;ratioP2;P2;SDS_P1;SDS_P2;PMS_P1;PMS_P2;Temp;Humidity;BMP_temperature;BMP_pressure;BME280_temperature;BME280_humidity;BME280_pressure;Samples;Min_cycle;Max_cycle;Signal;HPM_P1;HPM_P2
2023/05/08 00:06:55;;;;;;;1.08;0.55;;;8.80;99.90;;;;;;25964966;22;20003;-59
2023/05/08 00:16:57;;;;;;;1.58;0.60;;;9.00;99.90;;;;;;25964943;22;20008;-47
2023/05/08 00:26:58;;;;;;;1.77;0.38;;;9.10;99.90;;;;;;25962924;22;20012;-50
2023/05/08 00:37:00;;;;;;;2.28;0.98;;;8.90;99.90;;;;;;25965259;22;20011;-46
2023/05/08 00:47:02;;;;;;;3.05;1.27;;;8.90;99.90;;;;;;25971803;22;20051;-59
2023/05/08 00:57:06;;;;;;;2.63;1.13;;;8.80;99.90;;;;;;25971786;22;20015;-45
2023/05/08 01:07:08;;;;;;;2.90;1.13;;;8.80;99.90;;;;;;25971032;22;20381;-47
2023/05/08 01:17:39;;;;;;;1.83;1.08;;;8.80;99.90;;;;;;25943756;22;20014;-61
2023/05/08 01:28:04;;;;;;;1.10;0.77;;;8.80;99.90;;;;;;26013042;22;20003;-51
2023/05/08 01:38:12;;;;;;;1.27;0.90;;;8.70;99.90;;;;;;26012274;22;20004;-60
2023/05/08 01:48:24;;;;;;;2.70;0.70;;;8.80;99.90;;;;;;25985164;22;20015;-46
2023/05/08 01:58:27;;;;;;;0.93;0.60;;;8.80;99.90;;;;;;26011559;22;20482;-49
2023/05/08 02:08:30;;;;;;;0.63;0.43;;;8.80;99.90;;;;;;25941882;22;20065;-60
2023/05/08 02:18:33;;;;;;;1.08;0.60;;;8.80;99.90;;;;;;25967993;22;20003;-50
2023/05/08 02:28:35;;;;;;;0.85;0.60;;;8.70;99.90;;;;;;25967991;22;20073;-51
2023/05/08 02:38:40;;;;;;;3.80;0.55;;;8.70;99.90;;;;;;25967622;22;20008;-47
2023/05/08 02:49:03;;;;;;;1.08;0.60;;;8.60;99.90;;;;;;25966885;22;20018;-50
2023/05/08 02:59:15;;;;;;;1.27;0.65;;;8.60;99.90;;;;;;25914115;22;20050;-50
2023/05/08 03:09:20;;;;;;;0.95;0.63;;;8.50;99.90;;;;;;25981094;22;20007;-61
2023/05/08 03:19:34;;;;;;;0.98;0.80;;;8.50;99.90;;;;;;25966063;22;20003;-61
2023/05/08 03:29:40;;;;;;;2.53;0.98;;;8.50;99.90;;;;;;25981286;22;20007;-47
2023/05/08 03:39:42;;;;;;;1.40;0.93;;;8.40;99.90;;;;;;25938559;22;20014;-47
2023/05/08 03:49:46;;;;;;;1.10;0.90;;;8.50;99.90;;;;;;25938258;22;20016;-51
2023/05/08 04:00:01;;;;;;;1.13;0.80;;;8.50;99.90;;;;;;25937938;22;20334;-59
2023/05/08 04:10:43;;;;;;;0.73;0.60;;;8.50;99.90;;;;;;26007473;22;20003;-58
2023/05/08 04:20:47;;;;;;;1.20;0.70;;;8.60;99.90;;;;;;25886923;22;20015;-50
2023/05/08 04:30:50;;;;;;;2.30;0.80;;;8.70;99.90;;;;;;25945612;22;20003;-51
2023/05/08 04:40:52;;;;;;;1.42;0.90;;;8.80;99.90;;;;;;25973979;22;20008;-59
2023/05/08 04:50:54;;;;;;;1.15;0.98;;;8.80;99.90;;;;;;25944869;22;20066;-52
2023/05/08 05:00:56;;;;;;;1.80;1.00;;;8.80;99.90;;;;;;25971589;22;20011;-59
2023/05/08 05:10:58;;;;;;;1.70;1.15;;;8.80;99.90;;;;;;25944264;22;20439;-51
2023/05/08 05:21:00;;;;;;;1.70;1.20;;;8.90;99.90;;;;;;25943487;22;20007;-58
2023/05/08 05:31:05;;;;;;;2.53;1.27;;;9.00;99.90;;;;;;25969683;22;20065;-52
2023/05/08 05:41:07;;;;;;;1.77;1.48;;;9.00;99.90;;;;;;25943055;22;20008;-50
2023/05/08 05:51:09;;;;;;;2.22;1.45;;;8.90;99.90;;;;;;25942592;22;20008;-47
2023/05/08 06:01:11;;;;;;;2.00;1.73;;;9.00;99.90;;;;;;25941779;22;20117;-53
2023/05/08 06:11:16;;;;;;;2.30;1.50;;;9.10;99.90;;;;;;25967739;22;20101;-47
2023/05/08 06:21:18;;;;;;;3.38;1.60;;;9.40;99.90;;;;;;25968434;22;20004;-48
2023/05/08 06:31:20;;;;;;;1.55;1.42;;;9.50;99.90;;;;;;25966257;22;20415;-61
2023/05/08 06:41:22;;;;;;;2.13;1.20;;;10.00;99.90;;;;;;25967441;22;20431;-61
2023/05/08 06:51:23;;;;;;;4.13;1.35;;;10.50;99.90;;;;;;25967276;22;20081;-60
2023/05/08 07:01:25;;;;;;;1.65;1.55;;;10.90;99.90;;;;;;25966487;22;20011;-47
2023/05/08 07:11:27;;;;;;;1.95;1.60;;;11.10;99.90;;;;;;25966383;22;20004;-59
2023/05/08 07:21:29;;;;;;;4.15;2.08;;;11.30;99.90;;;;;;25966215;22;20053;-46
2023/05/08 07:31:31;;;;;;;2.20;1.98;;;11.80;99.90;;;;;;25964849;22;20003;-59
2023/05/08 07:41:32;;;;;;;3.40;1.90;;;12.10;99.90;;;;;;25965607;22;20004;-51
2023/05/08 07:51:34;;;;;;;2.08;1.70;;;12.00;99.90;;;;;;25965132;22;20069;-51
2023/05/08 08:01:35;;;;;;;1.95;1.70;;;11.90;99.90;;;;;;25965286;22;20008;-51
2023/05/08 08:11:37;;;;;;;2.83;2.53;;;11.80;99.90;;;;;;25965000;22;20007;-51
2023/05/08 08:21:42;;;;;;;2.35;1.95;;;12.30;99.90;;;;;;25937433;22;20003;-51
2023/05/08 08:31:44;;;;;;;2.85;2.45;;;13.30;99.90;;;;;;25964260;22;20004;-52
2023/05/08 08:41:46;;;;;;;3.72;2.47;;;14.40;99.90;;;;;;25966216;22;20012;-49
2023/05/08 08:51:57;;;;;;;2.17;1.92;;;14.70;99.90;;;;;;25964314;22;20313;-59
2023/05/08 09:02:07;;;;;;;3.00;2.72;;;15.20;99.90;;;;;;26007826;22;20038;-51
2023/05/08 09:12:09;;;;;;;3.33;3.03;;;15.40;99.90;;;;;;26013714;22;20007;-57
2023/05/08 09:22:11;;;;;;;3.13;2.65;;;14.80;99.90;;;;;;25970762;22;20407;-48
2023/05/08 09:32:17;;;;;;;3.38;2.63;;;14.70;99.90;;;;;;25970645;22;20312;-49
2023/05/08 09:42:19;;;;;;;2.95;2.65;;;15.90;99.90;;;;;;25985359;22;20018;-53
2023/05/08 09:52:20;;;;;;;3.20;2.70;;;16.60;99.90;;;;;;26012074;22;20011;-60
2023/05/08 10:02:22;;;;;;;2.70;2.40;;;16.90;99.90;;;;;;25968364;22;20141;-49
2023/05/08 10:12:24;;;;;;;4.22;3.45;;;16.20;99.90;;;;;;25968757;22;20427;-59
2023/05/08 10:22:27;;;;;;;5.63;4.03;;;15.30;99.90;;;;;;25968343;22;20007;-59
2023/05/08 10:32:42;;;;;;;5.70;3.30;;;14.90;99.90;;;;;;25967960;22;20465;-59
2023/05/08 10:42:44;;;;;;;3.67;3.38;;;15.10;99.90;;;;;;26006871;22;20391;-59
2023/05/08 10:53:17;;;;;;;4.68;3.38;;;15.80;99.90;;;;;;25967147;22;20011;-59
2023/05/08 11:03:22;;;;;;;3.72;3.13;;;16.40;99.90;;;;;;25959013;22;20011;-60
2023/05/08 11:13:31;;;;;;;4.43;4.03;;;16.00;99.90;;;;;;25966279;22;20327;-60
2023/05/08 11:23:33;;;;;;;5.60;5.10;;;15.50;99.90;;;;;;26008324;22;20008;-60
2023/05/08 11:33:36;;;;;;;6.43;4.65;;;15.40;99.90;;;;;;25965767;22;20394;-60
2023/05/08 11:43:40;;;;;;;7.20;6.57;;;15.20;99.90;;;;;;25965226;22;20065;-60
2023/05/08 11:53:43;;;;;;;8.05;7.25;;;14.90;99.90;;;;;;25965182;22;19995;-60
2023/05/08 12:03:44;;;;;;;8.68;7.00;;;14.10;99.90;;;;;;25964049;22;20003;-59
2023/05/08 12:13:50;;;;;;;8.43;7.60;;;13.40;99.90;;;;;;25964939;22;19999;-48
2023/05/08 12:23:55;;;;;;;7.60;6.88;;;13.30;99.90;;;;;;25966411;22;20454;-60
2023/05/08 12:33:57;;;;;;;6.55;5.85;;;13.50;99.90;;;;;;25938469;22;20008;-60
2023/05/08 12:43:59;;;;;;;8.00;7.25;;;13.70;99.90;;;;;;25974118;22;20015;-61
2023/05/08 12:54:00;;;;;;;8.23;7.40;;;13.20;99.90;;;;;;25972013;22;20016;-61
2023/05/08 13:04:06;;;;;;;8.55;7.60;;;12.60;99.90;;;;;;25970582;22;20030;-60
2023/05/08 13:14:08;;;;;;;9.23;8.23;;;12.20;99.90;;;;;;25972572;22;20008;-59
2023/05/08 13:24:09;;;;;;;9.20;7.65;;;12.20;99.90;;;;;;25971206;22;20375;-60
2023/05/08 13:34:11;;;;;;;5.65;5.05;;;12.40;99.90;;;;;;25970230;22;20383;-60
2023/05/08 13:44:12;;;;;;;6.25;5.65;;;13.00;99.90;;;;;;25969372;22;20023;-60
2023/05/08 13:54:14;;;;;;;6.15;5.43;;;13.90;99.90;;;;;;25969777;22;20430;-48
2023/05/08 14:04:15;;;;;;;5.47;4.97;;;14.30;99.90;;;;;;25968185;22;20109;-51
2023/05/08 14:14:17;;;;;;;5.57;5.00;;;14.50;99.90;;;;;;25968522;22;20439;-60
2023/05/08 14:24:19;;;;;;;5.22;4.70;;;14.70;99.90;;;;;;25970185;22;20073;-49
2023/05/08 14:34:20;;;;;;;5.15;4.63;;;14.90;99.90;;;;;;25968024;22;20012;-60
2023/05/08 14:44:22;;;;;;;4.47;3.67;;;15.10;99.90;;;;;;25967348;22;20384;-60
2023/05/08 14:54:24;;;;;;;4.55;3.35;;;15.40;99.90;;;;;;25967315;22;20004;-61
2023/05/08 15:04:25;;;;;;;5.03;4.10;;;16.00;99.90;;;;;;25966972;22;20057;-60
2023/05/08 15:14:27;;;;;;;5.13;4.45;;;16.00;99.90;;;;;;25966521;22;20003;-60
2023/05/08 15:24:29;;;;;;;8.32;5.28;;;15.30;99.90;;;;;;25966345;22;20046;-61
2023/05/08 15:34:30;;;;;;;6.22;5.00;;;14.70;99.90;;;;;;25965640;22;20038;-60
2023/05/08 15:44:32;;;;;;;5.95;4.55;;;15.10;99.90;;;;;;25965404;22;20016;-60
2023/05/08 15:54:34;;;;;;;7.47;6.68;;;16.20;99.90;;;;;;25965686;22;20004;-61
2023/05/08 16:04:35;;;;;;;7.00;5.90;;;15.40;99.90;;;;;;25964209;22;20007;-60
2023/05/08 16:14:37;;;;;;;7.90;6.97;;;14.40;99.90;;;;;;25971524;22;20007;-60
2023/05/08 16:24:39;;;;;;;9.48;7.68;;;14.20;99.90;;;;;;25973345;22;20007;-60
2023/05/08 16:34:42;;;;;;;9.27;8.30;;;13.40;99.90;;;;;;25972334;22;20011;-59
2023/05/08 16:44:44;;;;;;;9.65;8.25;;;12.80;99.90;;;;;;25943786;22;20015;-60
2023/05/08 16:54:45;;;;;;;11.00;8.68;;;12.40;99.90;;;;;;25972201;22;20007;-60
2023/05/08 17:04:48;;;;;;;10.73;8.30;;;12.30;99.90;;;;;;25944547;22;20481;-59
2023/05/08 17:14:50;;;;;;;8.65;7.40;;;12.10;99.90;;;;;;25971390;22;20004;-61
2023/05/08 17:24:52;;;;;;;9.98;7.07;;;11.70;99.90;;;;;;25970662;22;20007;-60
2023/05/08 17:34:53;;;;;;;8.63;6.85;;;11.60;99.90;;;;;;25970175;22;20004;-52
2023/05/08 17:44:55;;;;;;;8.10;7.30;;;11.40;99.90;;;;;;25969225;22;20038;-49
2023/05/08 17:54:57;;;;;;;8.32;7.43;;;11.40;99.90;;;;;;25969697;22;20000;-59
2023/05/08 18:04:58;;;;;;;11.77;9.60;;;11.40;99.90;;;;;;25969235;22;20050;-60
2023/05/08 18:15:04;;;;;;;10.85;9.15;;;11.30;99.90;;;;;;25968661;22;20438;-51
2023/05/08 18:25:06;;;;;;;8.93;8.00;;;11.20;99.90;;;;;;25968808;22;20029;-60
2023/05/08 18:35:08;;;;;;;10.40;8.98;;;11.10;99.90;;;;;;25967627;22;20342;-51
2023/05/08 18:45:10;;;;;;;11.20;9.55;;;11.00;99.90;;;;;;25966618;22;20085;-60
2023/05/08 18:55:12;;;;;;;12.85;9.18;;;10.90;99.90;;;;;;25967107;22;20492;-48
2023/05/08 19:05:14;;;;;;;9.32;8.20;;;10.80;99.90;;;;;;25966520;22;20500;-45
2023/05/08 19:15:16;;;;;;;10.10;7.72;;;10.70;99.90;;;;;;25965342;22;19999;-46
2023/05/08 19:25:17;;;;;;;20.65;10.15;;;10.60;99.90;;;;;;25965995;22;20004;-49
2023/05/08 19:35:20;;;;;;;8.10;5.25;;;10.50;99.90;;;;;;25964526;22;20003;-46
2023/05/08 19:45:21;;;;;;;11.45;8.68;;;10.40;99.90;;;;;;25964898;22;20019;-48
2023/05/08 19:55:23;;;;;;;10.30;7.68;;;10.40;99.90;;;;;;25965377;22;20008;-60
2023/05/08 20:05:25;;;;;;;6.18;3.78;;;10.40;99.90;;;;;;25964993;22;20634;-50
2023/05/08 20:15:26;;;;;;;3.45;2.40;;;10.30;99.90;;;;;;25964865;22;20004;-51
2023/05/08 20:25:28;;;;;;;4.28;2.60;;;10.20;99.90;;;;;;25964705;22;20443;-47
2023/05/08 20:35:31;;;;;;;5.78;4.30;;;10.10;99.90;;;;;;25964179;22;20065;-49
2023/05/08 20:45:33;;;;;;;6.63;4.13;;;10.10;99.90;;;;;;25991809;22;20020;-61
2023/05/08 20:55:35;;;;;;;5.45;4.40;;;9.90;99.90;;;;;;25965992;22;19999;-50
2023/05/08 21:05:37;;;;;;;6.72;4.43;;;9.50;99.90;;;;;;25971168;22;20000;-47
2023/05/08 21:15:39;;;;;;;6.53;3.83;;;9.30;99.90;;;;;;25970950;22;20003;-48
2023/05/08 21:25:40;;;;;;;7.60;5.10;;;8.90;99.90;;;;;;25970828;22;20004;-45
2023/05/08 21:35:42;;;;;;;9.27;5.53;;;8.60;99.90;;;;;;25968672;22;20430;-59
2023/05/08 21:45:44;;;;;;;9.50;5.32;;;8.50;99.90;;;;;;25970894;22;20379;-49
2023/05/08 21:55:46;;;;;;;6.30;4.82;;;8.60;99.90;;;;;;25942220;22;20077;-48
2023/05/08 22:05:47;;;;;;;7.45;5.70;;;8.70;99.90;;;;;;25968738;22;20007;-59
2023/05/08 22:15:49;;;;;;;7.45;4.97;;;8.70;99.90;;;;;;25968790;22;20374;-59
2023/05/08 22:25:50;;;;;;;5.63;4.55;;;8.70;99.90;;;;;;25970320;22;20004;-60
2023/05/08 22:35:52;;;;;;;5.70;4.45;;;8.70;99.90;;;;;;25968082;22;20012;-59
2023/05/08 22:45:54;;;;;;;7.53;5.43;;;8.60;99.90;;;;;;25967481;22;20062;-59
2023/05/08 22:55:56;;;;;;;7.50;5.75;;;8.60;99.90;;;;;;25940090;22;20007;-49
2023/05/08 23:05:57;;;;;;;7.03;5.30;;;8.70;99.90;;;;;;25966826;22;20335;-59
2023/05/08 23:15:59;;;;;;;7.32;5.45;;;8.70;99.90;;;;;;25966389;22;20512;-49
2023/05/08 23:26:03;;;;;;;8.30;6.00;;;8.80;99.90;;;;;;25965946;22;20007;-51
2023/05/08 23:36:05;;;;;;;8.05;5.97;;;8.70;99.90;;;;;;25965534;22;20007;-49
2023/05/08 23:46:08;;;;;;;6.32;5.47;;;8.70;99.90;;;;;;25965452;22;20020;-59
2023/05/08 23:56:10;;;;;;;8.15;5.90;;;8.70;99.90;;;;;;25965190;22;20083;-59
